Time;durP1;ratioP1;P1;durP2;ratioP2;P2;SDS_P1;SDS_P2;PMS_P1;PMS_P2;Temp;Humidity;BMP_temperature;BMP_pressure;BME280_temperature;BME280_humidity;BME280_pressure;Samples;Min_cycle;Max_cycle;Signal;HPM_P1;HPM_P2
2022/06/02 00:00:25;;;;;;;11.13;8.98;;;11.80;99.90;;;;;;5076138;28;20089;-74
2022/06/02 00:03:10;;;;;;;13.48;9.13;;;11.80;99.90;;;;;;5093262;28;20134;-74
2022/06/02 00:06:02;;;;;;;15.30;8.85;;;12.10;99.90;;;;;;5093509;28;20028;-74
2022/06/02 00:08:56;;;;;;;10.23;8.40;;;12.40;99.90;;;;;;5093152;28;20506;-74
2022/06/02 00:11:47;;;;;;;12.75;9.15;;;12.40;99.90;;;;;;5093590;28;20032;-74
2022/06/02 00:14:29;;;;;;;10.48;9.10;;;12.80;99.90;;;;;;5093215;28;20096;-74
2022/06/02 00:17:19;;;;;;;11.10;9.68;;;12.40;99.90;;;;;;5087422;28;20025;-74
2022/06/02 00:20:35;;;;;;;13.77;8.93;;;12.10;99.90;;;;;;5092469;28;20380;-74
2022/06/02 00:23:19;;;;;;;10.63;8.38;;;11.70;99.90;;;;;;5073199;28;20049;-75
2022/06/02 00:26:02;;;;;;;13.68;8.55;;;11.80;99.90;;;;;;5090093;28;20024;-74
2022/06/02 00:28:34;;;;;;;11.35;8.57;;;11.70;99.90;;;;;;5084583;28;20028;-74
2022/06/02 00:31:12;;;;;;;12.45;9.65;;;11.50;99.90;;;;;;5091481;28;20035;-75
2022/06/02 00:34:10;;;;;;;16.73;10.52;;;11.60;99.90;;;;;;5091907;28;20028;-74
2022/06/02 00:36:45;;;;;;;12.50;10.13;;;11.80;99.90;;;;;;5080727;28;20040;-74
2022/06/02 00:39:15;;;;;;;15.45;10.05;;;11.80;99.90;;;;;;5092460;28;20118;-74
2022/06/02 00:42:01;;;;;;;15.80;9.70;;;12.00;99.90;;;;;;5093404;28;20035;-74
2022/06/02 00:44:51;;;;;;;10.13;8.88;;;12.00;99.90;;;;;;5092840;28;20537;-74
2022/06/02 00:47:38;;;;;;;11.50;9.55;;;11.90;99.90;;;;;;5092839;28;20044;-74
2022/06/02 00:50:23;;;;;;;15.73;8.95;;;11.90;99.90;;;;;;5092611;28;20016;-74
2022/06/02 00:53:20;;;;;;;11.00;9.25;;;11.90;99.90;;;;;;5076999;28;20035;-74
2022/06/02 00:59:12;;;;;;;13.05;10.20;;;12.00;99.90;;;;;;5092764;28;20480;-74
2022/06/02 01:01:38;;;;;;;;;;;11.90;99.90;;;;;;5091774;28;20050;-75
2022/06/02 01:04:09;;;;;;;11.85;9.52;;;11.60;99.90;;;;;;5092553;28;20376;-74
2022/06/02 01:06:58;;;;;;;11.02;9.68;;;11.60;99.90;;;;;;5092154;28;20498;-74
2022/06/02 01:09:38;;;;;;;11.45;9.57;;;11.90;99.90;;;;;;5089130;28;20385;-74
2022/06/02 01:12:12;;;;;;;13.45;10.32;;;11.60;99.90;;;;;;5092607;28;20465;-74
2022/06/02 01:14:56;;;;;;;14.13;10.07;;;10.80;99.90;;;;;;5092582;28;20036;-74
2022/06/02 01:17:58;;;;;;;11.57;10.38;;;10.50;99.90;;;;;;5091468;28;20434;-74
2022/06/02 01:20:23;;;;;;;13.50;11.10;;;10.50;99.90;;;;;;5068483;28;20483;-74
2022/06/02 01:23:07;;;;;;;12.07;10.70;;;10.80;99.90;;;;;;5092451;28;20313;-74
2022/06/02 01:26:12;;;;;;;12.40;11.10;;;11.20;99.90;;;;;;5087527;28;20090;-74
2022/06/02 01:28:56;;;;;;;19.92;12.73;;;11.30;99.90;;;;;;5087290;28;20047;-74
2022/06/02 01:31:34;;;;;;;16.63;12.45;;;11.40;99.90;;;;;;5091216;28;20036;-74
2022/06/02 01:34:05;;;;;;;15.35;11.88;;;11.30;99.90;;;;;;5091233;28;20075;-74
2022/06/02 01:36:43;;;;;;;16.52;12.82;;;11.40;99.90;;;;;;5090669;28;20047;-74
2022/06/02 01:39:32;;;;;;;14.52;12.40;;;11.00;99.90;;;;;;5092260;28;20028;-74
2022/06/02 01:42:08;;;;;;;17.75;12.48;;;10.40;99.90;;;;;;5094371;28;20036;-74
2022/06/02 01:44:58;;;;;;;15.77;12.85;;;10.50;99.90;;;;;;5096423;28;20102;-74
2022/06/02 01:47:40;;;;;;;15.57;13.85;;;10.20;99.90;;;;;;5095804;28;20046;-74
2022/06/02 01:50:30;;;;;;;19.27;14.38;;;10.30;99.90;;;;;;5095701;28;20103;-74
2022/06/02 01:53:12;;;;;;;18.42;13.82;;;10.30;99.90;;;;;;5094887;28;20531;-74
2022/06/02 01:55:57;;;;;;;16.40;14.63;;;10.40;99.90;;;;;;5095997;28;20035;-74
2022/06/02 01:59:01;;;;;;;20.52;14.88;;;10.40;99.90;;;;;;5096084;28;20119;-74
2022/06/02 02:01:54;;;;;;;17.02;14.43;;;10.40;99.90;;;;;;5094748;28;20035;-74
2022/06/02 02:04:45;;;;;;;22.95;15.55;;;10.70;99.90;;;;;;5095834;28;20036;-74
2022/06/02 02:07:39;;;;;;;18.33;16.38;;;10.70;99.90;;;;;;5094237;28;20500;-74
2022/06/02 02:10:26;;;;;;;18.05;15.80;;;10.40;99.90;;;;;;5095750;28;20043;-74
2022/06/02 02:13:01;;;;;;;17.90;14.82;;;10.30;99.90;;;;;;5094361;28;20024;-74
2022/06/02 02:15:44;;;;;;;20.45;16.35;;;10.40;99.90;;;;;;5095593;28;20028;-74
2022/06/02 02:18:47;;;;;;;20.75;17.40;;;10.70;99.90;;;;;;5095629;28;20111;-74
2022/06/02 02:21:16;;;;;;;21.70;17.23;;;11.00;99.90;;;;;;5094052;28;20032;-74
2022/06/02 02:24:03;;;;;;;20.67;16.40;;;11.00;99.90;;;;;;5095563;28;20024;-74
2022/06/02 02:26:36;;;;;;;29.30;16.85;;;11.10;99.90;;;;;;5083836;28;20124;-74
2022/06/02 02:29:16;;;;;;;21.38;17.65;;;11.20;99.90;;;;;;5093640;28;20028;-74
2022/06/02 02:32:04;;;;;;;20.98;18.77;;;11.50;99.90;;;;;;5095402;28;20464;-74
2022/06/02 02:34:50;;;;;;;22.30;18.55;;;11.30;99.90;;;;;;5095094;28;20020;-74
2022/06/02 02:37:25;;;;;;;22.95;17.90;;;11.40;99.90;;;;;;5093989;28;20032;-74
2022/06/02 02:40:21;;;;;;;21.17;16.88;;;11.10;99.90;;;;;;5095435;28;20476;-74
2022/06/02 02:42:53;;;;;;;22.05;17.25;;;10.50;99.90;;;;;;5095036;28;20047;-74
2022/06/02 02:45:34;;;;;;;21.13;17.90;;;10.20;99.90;;;;;;5093759;28;20076;-74
2022/06/02 02:48:23;;;;;;;21.13;17.55;;;10.40;99.90;;;;;;5093492;28;20118;-74
2022/06/02 02:51:04;;;;;;;19.35;16.45;;;10.60;99.90;;;;;;5093452;28;20038;-74
2022/06/02 02:53:57;;;;;;;19.90;16.60;;;10.70;99.90;;;;;;5076893;28;20500;-74
2022/06/02 02:56:31;;;;;;;20.42;16.75;;;10.90;99.90;;;;;;5094914;28;20024;-74
2022/06/02 02:59:36;;;;;;;24.80;16.58;;;10.80;99.90;;;;;;5098379;28;20079;-74
2022/06/02 03:02:24;;;;;;;21.35;17.55;;;10.60;99.90;;;;;;5094577;28;20465;-74
2022/06/02 03:05:00;;;;;;;25.77;16.27;;;10.90;99.90;;;;;;5094221;28;20484;-74
2022/06/02 03:07:29;;;;;;;21.92;16.77;;;10.90;99.90;;;;;;5094490;28;20134;-74
2022/06/02 03:10:24;;;;;;;23.10;15.88;;;11.00;99.90;;;;;;5094681;28;20055;-74
2022/06/02 03:13:13;;;;;;;21.83;16.90;;;10.90;99.90;;;;;;5094469;28;20071;-74
2022/06/02 03:15:54;;;;;;;18.13;16.15;;;10.80;99.90;;;;;;5093555;28;20028;-74
2022/06/02 03:18:43;;;;;;;19.15;16.13;;;10.80;99.90;;;;;;5093384;28;20032;-74
2022/06/02 03:21:28;;;;;;;21.73;15.90;;;10.60;99.90;;;;;;5094647;28;20483;-74
2022/06/02 03:24:11;;;;;;;21.50;18.02;;;10.30;99.90;;;;;;5094722;28;20506;-74
2022/06/02 03:26:49;;;;;;;19.55;15.38;;;10.40;99.90;;;;;;5080100;28;20492;-74
2022/06/02 03:29:26;;;;;;;19.05;16.60;;;10.60;99.90;;;;;;5094226;28;20027;-74
2022/06/02 03:32:31;;;;;;;22.52;16.90;;;10.40;99.90;;;;;;5093947;28;20081;-74
2022/06/02 03:35:17;;;;;;;23.45;17.80;;;10.50;99.90;;;;;;5094253;28;20036;-74
2022/06/02 03:38:02;;;;;;;21.90;16.42;;;10.40;99.90;;;;;;5093805;28;20032;-74
2022/06/02 03:41:18;;;;;;;20.83;17.52;;;10.30;99.90;;;;;;5093854;28;20032;-74
2022/06/02 03:43:51;;;;;;;20.73;17.02;;;10.30;99.90;;;;;;5071460;28;20033;-74
2022/06/02 03:46:52;;;;;;;23.30;16.65;;;10.40;99.90;;;;;;5089249;28;20059;-74
2022/06/02 03:49:34;;;;;;;19.98;17.13;;;10.10;99.90;;;;;;5071166;28;20507;-74
2022/06/02 03:52:15;;;;;;;;;;;10.00;99.90;;;;;;5085259;28;20070;-74
2022/06/02 03:55:00;;;;;;;21.38;17.73;;;10.00;99.90;;;;;;5093422;28;19920;-74
2022/06/02 03:57:40;;;;;;;21.80;18.98;;;10.10;99.90;;;;;;5093798;28;20454;-74
2022/06/02 04:00:35;;;;;;;21.45;18.38;;;10.20;99.90;;;;;;5092600;28;20024;-74
2022/06/02 04:03:05;;;;;;;27.10;19.20;;;10.10;99.90;;;;;;5093265;28;20024;-74
2022/06/02 04:05:53;;;;;;;27.92;19.70;;;10.00;99.90;;;;;;5092902;28;20024;-74
2022/06/02 04:08:56;;;;;;;28.13;19.30;;;10.30;99.90;;;;;;5093476;28;20071;-74
2022/06/02 04:14:56;;;;;;;22.65;17.50;;;10.20;99.90;;;;;;5092060;28;20068;-74
2022/06/02 04:17:29;;;;;;;22.42;16.45;;;10.20;99.90;;;;;;5084703;28;20093;-74
2022/06/02 04:23:26;;;;;;;23.53;19.43;;;10.10;99.90;;;;;;5093468;28;20032;-74
2022/06/02 04:26:17;;;;;;;27.15;19.85;;;10.40;99.90;;;;;;5086936;28;20043;-74
2022/06/02 04:28:49;;;;;;;27.65;19.92;;;10.80;99.90;;;;;;5077976;28;20041;-74
2022/06/02 04:31:38;;;;;;;26.77;21.50;;;11.00;99.90;;;;;;5091638;28;20034;-74
2022/06/02 04:34:28;;;;;;;28.98;21.17;;;11.10;99.90;;;;;;5075577;28;20032;-74
2022/06/02 04:37:30;;;;;;;24.92;20.50;;;11.00;99.90;;;;;;5074873;28;20043;-74
2022/06/02 04:40:33;;;;;;;25.20;21.00;;;11.00;99.90;;;;;;5085057;28;20036;-74
2022/06/02 04:43:14;;;;;;;23.77;19.98;;;11.00;99.90;;;;;;5093029;28;20113;-74
2022/06/02 04:46:15;;;;;;;24.13;20.38;;;10.70;99.90;;;;;;5092473;28;20093;-74
2022/06/02 04:48:52;;;;;;;26.70;19.52;;;10.80;99.90;;;;;;5092788;28;20032;-74
2022/06/02 04:51:48;;;;;;;25.90;21.65;;;10.60;99.90;;;;;;5092709;28;20422;-74
2022/06/02 04:54:39;;;;;;;26.70;21.48;;;11.00;99.90;;;;;;5092868;28;20020;-74
2022/06/02 04:57:05;;;;;;;27.90;20.52;;;11.10;99.90;;;;;;5089726;28;20046;-74
2022/06/02 04:59:53;;;;;;;27.73;22.17;;;11.20;99.90;;;;;;5092477;28;20438;-74
2022/06/02 05:02:49;;;;;;;22.92;20.42;;;11.30;99.90;;;;;;5092963;28;20028;-74
2022/06/02 05:05:32;;;;;;;27.42;21.38;;;11.10;99.90;;;;;;5080626;28;20372;-74
2022/06/02 05:07:58;;;;;;;26.00;22.52;;;10.80;99.90;;;;;;5092555;28;20094;-74
2022/06/02 05:10:50;;;;;;;26.25;22.05;;;11.20;99.90;;;;;;5092729;28;20066;-74
2022/06/02 05:13:18;;;;;;;27.40;21.48;;;11.30;99.90;;;;;;5092273;28;20421;-74
2022/06/02 05:16:21;;;;;;;25.10;21.75;;;11.00;99.90;;;;;;5092412;28;20063;-74
2022/06/02 05:18:59;;;;;;;30.30;23.75;;;11.10;99.90;;;;;;5096830;28;20039;-74
2022/06/02 05:22:09;;;;;;;30.13;23.33;;;11.40;99.90;;;;;;5096495;28;20079;-74
2022/06/02 05:24:59;;;;;;;29.40;22.75;;;11.30;99.90;;;;;;5074348;28;20131;-74
2022/06/02 05:27:52;;;;;;;32.50;23.38;;;11.50;99.90;;;;;;5081162;28;20047;-74
2022/06/02 05:30:21;;;;;;;32.80;23.38;;;11.40;99.90;;;;;;5096198;28;20039;-74
2022/06/02 05:33:17;;;;;;;27.55;22.48;;;11.10;99.90;;;;;;5096622;28;20012;-74
2022/06/02 05:36:33;;;;;;;26.52;22.77;;;10.90;99.90;;;;;;5096369;28;20035;-74
2022/06/02 05:39:14;;;;;;;30.75;23.17;;;11.00;99.90;;;;;;5077020;28;20048;-74
2022/06/02 05:42:01;;;;;;;31.58;24.25;;;11.10;99.90;;;;;;5096190;28;20087;-73
2022/06/02 05:45:03;;;;;;;33.25;23.00;;;11.10;99.90;;;;;;5096075;28;20117;-74
2022/06/02 05:47:47;;;;;;;31.23;25.00;;;11.30;99.90;;;;;;5096229;28;20129;-74
2022/06/02 05:50:29;;;;;;;37.92;25.73;;;11.60;99.90;;;;;;5095858;28;20024;-74
2022/06/02 05:53:00;;;;;;;37.80;27.98;;;12.10;99.90;;;;;;5096068;28;20384;-74
2022/06/02 05:55:34;;;;;;;38.05;25.35;;;12.30;99.90;;;;;;5083738;28;20130;-74
2022/06/02 05:58:05;;;;;;;40.55;27.15;;;12.50;99.90;;;;;;5084811;28;20029;-73
2022/06/02 06:00:31;;;;;;;30.75;25.02;;;12.70;99.90;;;;;;5078499;28;20017;-74
2022/06/02 06:03:04;;;;;;;85.00;29.25;;;12.70;99.90;;;;;;5089394;28;20109;-73
2022/06/02 06:05:46;;;;;;;31.85;24.20;;;13.00;99.90;;;;;;5090566;28;20534;-74
2022/06/02 06:08:49;;;;;;;32.65;21.13;;;13.20;99.90;;;;;;5086980;28;20108;-74
2022/06/02 06:11:20;;;;;;;27.70;20.08;;;13.20;99.90;;;;;;5082507;28;20025;-73
2022/06/02 06:14:22;;;;;;;27.45;19.42;;;13.50;99.90;;;;;;5078065;28;20100;-74
2022/06/02 06:17:31;;;;;;;26.75;19.05;;;13.50;99.90;;;;;;5075637;28;20193;-73
2022/06/02 06:20:02;;;;;;;29.83;18.73;;;13.60;99.90;;;;;;5075448;28;20102;-73
2022/06/02 06:22:43;;;;;;;30.95;17.05;;;13.50;99.90;;;;;;5080934;28;20346;-73
2022/06/02 06:25:31;;;;;;;22.88;16.48;;;13.70;99.90;;;;;;5088831;28;20046;-73
2022/06/02 06:28:18;;;;;;;22.05;15.85;;;13.90;99.90;;;;;;5085426;28;20035;-73
2022/06/02 06:31:21;;;;;;;18.42;12.77;;;14.00;99.90;;;;;;5077192;28;20029;-73
2022/06/02 06:33:54;;;;;;;23.73;14.85;;;14.00;99.90;;;;;;5071824;28;20040;-73
2022/06/02 06:36:39;;;;;;;20.20;13.32;;;14.20;99.90;;;;;;5085132;28;20150;-74
2022/06/02 06:39:27;;;;;;;22.02;15.50;;;14.40;99.90;;;;;;5086292;28;20037;-73
2022/06/02 06:42:25;;;;;;;24.02;15.13;;;14.50;99.90;;;;;;5083439;28;20028;-73
2022/06/02 06:45:25;;;;;;;20.77;12.10;;;14.90;99.90;;;;;;5081161;28;20021;-73
2022/06/02 06:48:00;;;;;;;12.07;10.63;;;15.00;99.90;;;;;;5082738;28;20128;-73
2022/06/02 06:50:39;;;;;;;18.48;12.45;;;15.10;99.90;;;;;;5079264;28;20032;-73
2022/06/02 06:53:26;;;;;;;17.23;11.85;;;15.20;99.90;;;;;;5093253;28;20023;-74
2022/06/02 06:56:05;;;;;;;13.40;9.90;;;15.20;99.90;;;;;;5075024;28;20029;-74
2022/06/02 06:58:56;;;;;;;16.05;12.95;;;15.40;99.90;;;;;;5086396;28;20047;-73
2022/06/02 07:01:28;;;;;;;21.08;13.30;;;15.40;99.90;;;;;;5073437;28;20028;-74
2022/06/02 07:04:17;;;;;;;14.70;10.43;;;15.20;99.90;;;;;;5082763;28;20460;-74
2022/06/02 07:06:54;;;;;;;12.95;9.80;;;15.20;99.90;;;;;;5072908;28;20648;-74
2022/06/02 07:09:52;;;;;;;15.30;11.30;;;15.30;99.90;;;;;;5074089;28;20068;-74
2022/06/02 07:15:41;;;;;;;11.95;6.65;;;15.40;99.90;;;;;;5073958;28;20107;-72
2022/06/02 07:18:22;;;;;;;12.15;7.95;;;15.50;99.90;;;;;;5074110;28;20021;-74
2022/06/02 07:21:17;;;;;;;9.95;7.93;;;15.70;99.90;;;;;;5072818;28;20078;-74
2022/06/02 07:24:03;;;;;;;11.35;7.35;;;15.80;99.90;;;;;;5069603;28;20036;-74
2022/06/02 07:26:48;;;;;;;13.82;7.68;;;15.70;99.90;;;;;;5073709;28;20090;-74
2022/06/02 07:29:39;;;;;;;4.97;4.00;;;15.70;99.90;;;;;;5092430;28;20039;-73
2022/06/02 07:32:29;;;;;;;9.75;4.43;;;16.20;99.90;;;;;;5094129;28;20391;-74
2022/06/02 07:35:33;;;;;;;8.45;5.80;;;16.20;99.90;;;;;;5088889;28;20032;-74
2022/06/02 07:38:11;;;;;;;6.30;4.13;;;16.60;99.90;;;;;;5080327;28;20039;-74
2022/06/02 07:40:48;;;;;;;9.15;5.28;;;16.40;99.90;;;;;;5091850;28;20036;-74
2022/06/02 07:43:41;;;;;;;4.50;3.60;;;16.60;99.90;;;;;;5094035;28;20028;-74
2022/06/02 07:46:31;;;;;;;7.93;5.50;;;16.40;99.90;;;;;;5092545;28;20040;-74
2022/06/02 07:49:23;;;;;;;7.88;4.88;;;16.50;99.90;;;;;;5090113;28;20103;-74
2022/06/02 07:51:55;;;;;;;7.82;4.10;;;16.80;99.90;;;;;;5082111;28;20036;-74
2022/06/02 07:54:29;;;;;;;3.80;2.67;;;16.90;99.90;;;;;;5093300;28;20036;-73
2022/06/02 07:57:29;;;;;;;6.40;2.78;;;17.50;99.90;;;;;;5093824;28;20571;-74
2022/06/02 08:00:09;;;;;;;11.35;3.65;;;17.50;99.90;;;;;;5093698;28;20024;-73
2022/06/02 08:03:05;;;;;;;6.40;2.35;;;17.60;99.90;;;;;;5093534;28;20032;-74
2022/06/02 08:06:07;;;;;;;5.67;2.33;;;17.30;99.90;;;;;;5093669;28;20044;-74
2022/06/02 08:08:57;;;;;;;4.13;2.40;;;17.60;99.90;;;;;;5092110;28;20048;-74
2022/06/02 08:11:36;;;;;;;2.95;2.08;;;17.80;99.90;;;;;;5093424;28;20024;-74
2022/06/02 08:14:12;;;;;;;4.95;2.90;;;17.70;99.90;;;;;;5093302;28;20032;-74
2022/06/02 08:17:00;;;;;;;8.45;3.60;;;17.60;99.90;;;;;;5091970;28;20099;-74
2022/06/02 08:19:34;;;;;;;6.43;3.53;;;17.50;99.90;;;;;;5093328;28;20056;-74
2022/06/02 08:22:04;;;;;;;5.15;2.67;;;17.70;99.90;;;;;;5086188;28;20439;-74
2022/06/02 08:24:54;;;;;;;8.38;2.80;;;18.00;99.90;;;;;;5093032;28;20036;-74
2022/06/02 08:27:48;;;;;;;5.80;2.17;;;18.40;99.90;;;;;;5074440;28;20048;-73
2022/06/02 08:30:32;;;;;;;3.72;1.98;;;18.80;99.90;;;;;;5087231;28;20492;-73
2022/06/02 08:33:10;;;;;;;7.15;1.70;;;18.60;99.30;;;;;;5093277;28;20512;-73
2022/06/02 08:35:49;;;;;;;3.53;1.73;;;18.80;98.40;;;;;;5091609;28;20094;-74
2022/06/02 08:38:55;;;;;;;2.30;1.38;;;18.60;96.80;;;;;;5091841;28;20377;-73
2022/06/02 08:41:35;;;;;;;4.22;1.85;;;18.50;97.70;;;;;;5092937;28;20119;-74
2022/06/02 08:44:19;;;;;;;8.38;2.15;;;18.90;98.00;;;;;;5092511;28;20111;-73
2022/06/02 08:47:00;;;;;;;5.15;1.90;;;18.50;97.10;;;;;;5091601;28;20096;-73
2022/06/02 08:49:37;;;;;;;4.55;2.17;;;18.30;97.70;;;;;;5087640;28;20028;-73
2022/06/02 08:52:54;;;;;;;3.88;2.05;;;18.20;99.50;;;;;;5092394;28;20110;-73
2022/06/02 08:55:59;;;;;;;5.18;1.95;;;18.20;99.00;;;;;;5092793;28;20062;-73
2022/06/02 08:59:18;;;;;;;3.20;2.00;;;17.90;99.20;;;;;;5091543;28;20020;-73
2022/06/02 09:02:02;;;;;;;5.28;2.75;;;18.30;99.90;;;;;;5070413;28;20043;-73
2022/06/02 09:04:39;;;;;;;5.45;2.78;;;18.50;98.50;;;;;;5069632;28;20039;-74
2022/06/02 09:07:35;;;;;;;7.68;2.75;;;18.70;98.90;;;;;;5080590;28;20063;-74
2022/06/02 09:10:19;;;;;;;5.75;2.78;;;18.80;98.20;;;;;;5092581;28;20032;-74
2022/06/02 09:13:08;;;;;;;4.88;2.30;;;19.00;98.90;;;;;;5091478;28;20040;-74
2022/06/02 09:15:56;;;;;;;3.80;2.55;;;19.20;97.80;;;;;;5085159;28;20043;-74
2022/06/02 09:18:46;;;;;;;10.27;2.90;;;18.70;98.10;;;;;;5092534;28;20044;-74
2022/06/02 09:21:25;;;;;;;2.50;2.20;;;19.10;98.50;;;;;;5091173;28;20507;-74
2022/06/02 09:24:02;;;;;;;5.85;1.90;;;19.50;97.70;;;;;;5092526;28;20396;-74
2022/06/02 09:26:29;;;;;;;5.72;2.80;;;19.50;97.50;;;;;;5081103;28;20044;-74
2022/06/02 09:29:12;;;;;;;8.15;2.95;;;19.50;96.80;;;;;;5089690;28;20102;-74
2022/06/02 09:32:33;;;;;;;5.63;3.10;;;19.90;96.50;;;;;;5092487;28;20047;-74
2022/06/02 09:35:20;;;;;;;4.93;3.67;;;19.60;96.30;;;;;;5069448;28;20175;-74
2022/06/02 09:37:47;;;;;;;4.32;2.97;;;19.70;97.30;;;;;;5070215;28;20083;-74
2022/06/02 09:40:15;;;;;;;4.45;3.40;;;19.80;96.70;;;;;;5084083;28;20027;-74
2022/06/02 09:43:01;;;;;;;3.58;2.90;;;19.90;96.10;;;;;;5092294;28;20073;-74
2022/06/02 09:45:54;;;;;;;6.55;2.80;;;20.10;96.10;;;;;;5091777;28;20119;-74
2022/06/02 09:48:40;;;;;;;5.57;4.13;;;20.40;96.00;;;;;;5092523;28;20044;-74
2022/06/02 09:51:24;;;;;;;9.13;3.95;;;19.80;95.10;;;;;;5089801;28;20061;-74
2022/06/02 09:53:58;;;;;;;8.35;4.97;;;19.90;96.40;;;;;;5092291;28;20035;-74
2022/06/02 09:56:34;;;;;;;6.90;4.03;;;19.50;97.00;;;;;;5090926;28;20468;-74
2022/06/02 09:59:17;;;;;;;7.07;4.22;;;19.90;96.10;;;;;;5092219;28;20040;-74
2022/06/02 10:02:05;;;;;;;8.38;4.25;;;20.20;95.40;;;;;;5092164;28;20055;-74
2022/06/02 10:04:34;;;;;;;7.40;4.93;;;20.20;95.30;;;;;;5095189;28;20039;-74
2022/06/02 10:07:02;;;;;;;7.68;5.22;;;20.20;95.00;;;;;;5096244;28;20079;-74
2022/06/02 10:09:56;;;;;;;7.28;5.45;;;20.30;96.10;;;;;;5095408;28;20122;-74
2022/06/02 10:13:00;;;;;;;6.43;5.57;;;20.40;96.20;;;;;;5095629;28;20110;-74
2022/06/02 10:15:40;;;;;;;8.15;5.00;;;20.90;93.90;;;;;;5094264;28;20106;-75
2022/06/02 10:18:25;;;;;;;13.10;7.10;;;21.10;93.60;;;;;;5093910;28;20024;-74
2022/06/02 10:21:12;;;;;;;6.93;6.22;;;21.10;92.20;;;;;;5095386;28;20132;-75
2022/06/02 10:24:14;;;;;;;8.65;6.25;;;20.40;94.10;;;;;;5095502;28;20023;-75
2022/06/02 10:27:23;;;;;;;8.80;5.60;;;20.70;94.40;;;;;;5083369;28;20041;-74
2022/06/02 10:30:26;;;;;;;12.73;5.85;;;21.20;93.10;;;;;;5085792;28;20090;-74
2022/06/02 10:33:14;;;;;;;6.65;5.93;;;21.00;93.60;;;;;;5095155;28;20028;-74
2022/06/02 10:35:43;;;;;;;10.48;5.07;;;20.90;94.20;;;;;;5093641;28;20032;-74
2022/06/02 10:38:27;;;;;;;9.07;5.60;;;21.20;93.60;;;;;;5094865;28;20111;-74
2022/06/02 10:41:11;;;;;;;8.55;5.28;;;21.30;93.70;;;;;;5094857;28;20052;-74
2022/06/02 10:44:12;;;;;;;10.68;6.70;;;21.20;93.30;;;;;;5095226;28;20342;-74
2022/06/02 10:47:22;;;;;;;6.85;5.78;;;21.40;93.20;;;;;;5083659;28;20044;-74
2022/06/02 10:50:08;;;;;;;7.82;5.43;;;20.80;93.10;;;;;;5091362;28;20115;-74
2022/06/02 10:53:05;;;;;;;14.15;5.00;;;21.40;92.70;;;;;;5094720;28;20111;-74
2022/06/02 10:56:03;;;;;;;13.15;4.53;;;21.20;92.00;;;;;;5094830;28;20093;-74
2022/06/02 10:59:03;;;;;;;5.15;4.00;;;20.90;93.50;;;;;;5087065;28;20508;-74
2022/06/02 11:01:47;;;;;;;4.75;3.75;;;21.10;93.30;;;;;;5093056;28;20036;-74
2022/06/02 11:04:34;;;;;;;6.60;3.65;;;21.50;92.90;;;;;;5094518;28;20036;-74
2022/06/02 11:07:23;;;;;;;11.13;3.70;;;21.60;92.80;;;;;;5083578;28;20048;-74
2022/06/02 11:10:10;;;;;;;4.78;3.90;;;22.20;92.80;;;;;;5094420;28;20031;-74
2022/06/02 11:13:00;;;;;;;5.70;3.92;;;22.40;91.70;;;;;;5094389;28;20032;-74
2022/06/02 11:16:17;;;;;;;4.60;3.33;;;22.80;91.60;;;;;;5091922;28;20507;-74
2022/06/02 11:19:13;;;;;;;7.38;3.70;;;23.10;91.50;;;;;;5094296;28;20021;-74
2022/06/02 11:22:05;;;;;;;6.88;3.30;;;22.90;90.90;;;;;;5092947;28;20057;-74
2022/06/02 11:24:51;;;;;;;8.98;4.22;;;22.80;91.60;;;;;;5094301;28;20487;-74
2022/06/02 11:27:45;;;;;;;4.68;3.22;;;22.80;91.50;;;;;;5079707;28;20039;-74
2022/06/02 11:30:56;;;;;;;6.35;4.03;;;22.90;90.10;;;;;;5094058;28;20032;-74
2022/06/02 11:33:52;;;;;;;5.22;3.15;;;21.70;91.40;;;;;;5092714;28;20396;-74
2022/06/02 11:36:54;;;;;;;6.95;3.03;;;21.80;91.60;;;;;;5093991;28;20043;-74
2022/06/02 11:39:57;;;;;;;3.80;2.90;;;22.10;92.00;;;;;;5093951;28;20036;-74
2022/06/02 11:42:46;;;;;;;6.90;3.20;;;22.50;90.40;;;;;;5093866;28;20028;-74
2022/06/02 11:45:38;;;;;;;4.45;3.70;;;22.70;90.80;;;;;;5093594;28;20415;-75
2022/06/02 11:48:29;;;;;;;12.48;3.65;;;22.60;90.00;;;;;;5090261;28;20124;-77
2022/06/02 11:51:19;;;;;;;5.43;3.70;;;22.20;90.70;;;;;;5087871;28;20507;-74
2022/06/02 11:54:00;;;;;;;4.78;3.30;;;22.90;91.10;;;;;;5071749;28;20380;-74
2022/06/02 11:56:41;;;;;;;;;;;22.90;90.90;;;;;;5069186;28;20392;-77
2022/06/02 11:59:22;;;;;;;9.85;3.70;;;22.50;91.40;;;;;;5071519;28;19966;-74
2022/06/02 12:02:21;;;;;;;6.80;3.30;;;23.40;91.20;;;;;;5072098;28;20036;-74
2022/06/02 12:04:50;;;;;;;5.18;3.80;;;23.20;88.90;;;;;;5080834;28;20043;-74
2022/06/02 12:08:03;;;;;;;6.47;3.53;;;23.10;90.70;;;;;;5073607;28;20097;-74
2022/06/02 12:10:55;;;;;;;5.10;2.92;;;23.20;87.60;;;;;;5072949;28;20039;-74
2022/06/02 12:13:44;;;;;;;9.02;3.42;;;23.30;88.90;;;;;;5072532;28;20067;-74
2022/06/02 12:16:11;;;;;;;14.45;2.72;;;23.40;88.80;;;;;;5072882;28;20037;-74
2022/06/02 12:18:53;;;;;;;5.50;3.55;;;23.30;89.10;;;;;;5072819;28;20032;-74
2022/06/02 12:21:24;;;;;;;4.78;3.55;;;24.10;87.40;;;;;;5072922;28;20029;-74
2022/06/02 12:24:19;;;;;;;4.55;2.90;;;24.10;88.20;;;;;;5072910;28;20021;-74
2022/06/02 12:27:22;;;;;;;5.68;2.45;;;24.50;86.90;;;;;;5072529;28;20036;-74
2022/06/02 12:29:56;;;;;;;5.53;2.75;;;25.20;85.50;;;;;;5083076;28;20032;-74
2022/06/02 12:33:03;;;;;;;6.82;2.50;;;24.40;86.20;;;;;;5093113;28;20464;-74
2022/06/02 12:35:56;;;;;;;4.68;2.88;;;24.90;84.90;;;;;;5090613;28;20162;-73
2022/06/02 12:38:40;;;;;;;5.82;3.08;;;24.40;85.30;;;;;;5091977;28;20062;-74
2022/06/02 12:41:19;;;;;;;3.70;3.20;;;24.80;84.80;;;;;;5092971;28;20024;-74
2022/06/02 12:44:12;;;;;;;6.45;3.38;;;24.50;85.60;;;;;;5092466;28;20024;-74
2022/06/02 12:46:52;;;;;;;7.18;3.30;;;25.10;84.80;;;;;;5092932;28;20028;-73
2022/06/02 12:49:24;;;;;;;7.82;3.80;;;25.60;82.00;;;;;;5092738;28;20024;-74
2022/06/02 12:52:25;;;;;;;3.17;2.50;;;26.00;82.40;;;;;;5091530;28;20396;-74
2022/06/02 12:54:51;;;;;;;3.30;2.67;;;26.40;82.40;;;;;;5070191;28;20033;-74
2022/06/02 12:57:25;;;;;;;7.25;2.90;;;26.70;80.30;;;;;;5079351;28;20488;-74
2022/06/02 13:00:17;;;;;;;10.45;2.50;;;26.70;80.50;;;;;;5091354;28;20089;-74
2022/06/02 13:03:06;;;;;;;5.90;2.70;;;25.80;79.50;;;;;;5092845;28;20024;-74
2022/06/02 13:06:05;;;;;;;3.58;2.95;;;24.90;78.90;;;;;;5060042;28;20463;-74
2022/06/02 13:08:46;;;;;;;4.10;3.25;;;24.80;80.90;;;;;;5079909;28;20377;-74
2022/06/02 13:11:49;;;;;;;7.15;3.53;;;24.80;82.00;;;;;;5092571;28;20031;-74
2022/06/02 13:14:21;;;;;;;5.50;3.10;;;24.90;81.80;;;;;;5092555;28;20476;-74
2022/06/02 13:16:50;;;;;;;;;;;24.90;81.80;;;;;;5093033;28;20392;-73
2022/06/02 13:19:36;;;;;;;3.78;3.30;;;25.00;80.50;;;;;;5092352;28;19998;-73
2022/06/02 13:22:23;;;;;;;4.90;3.13;;;25.30;79.00;;;;;;5092678;28;20024;-73
2022/06/02 13:25:01;;;;;;;4.70;3.00;;;25.10;80.50;;;;;;5092332;28;20383;-74
2022/06/02 13:27:45;;;;;;;4.47;2.83;;;25.80;80.50;;;;;;5077761;28;20047;-73
2022/06/02 13:30:27;;;;;;;5.20;2.22;;;26.70;80.30;;;;;;5092359;28;20040;-74
2022/06/02 13:33:27;;;;;;;4.68;2.30;;;27.30;78.30;;;;;;5092600;28;20016;-73
2022/06/02 13:36:08;;;;;;;4.03;2.80;;;26.50;80.30;;;;;;5091947;28;20465;-74
2022/06/02 13:38:49;;;;;;;3.10;2.80;;;27.10;79.90;;;;;;5095407;28;20032;-74
2022/06/02 13:41:45;;;;;;;4.70;3.23;;;26.30;78.80;;;;;;5096092;28;20096;-73
2022/06/02 13:44:40;;;;;;;7.15;2.85;;;27.20;77.80;;;;;;5096112;28;20050;-74
2022/06/02 13:47:36;;;;;;;6.25;2.85;;;28.10;77.60;;;;;;5096300;28;20411;-74
2022/06/02 13:50:34;;;;;;;5.30;2.50;;;28.10;76.40;;;;;;5092309;28;20039;-73
2022/06/02 13:53:22;;;;;;;4.68;3.35;;;28.70;76.00;;;;;;5073651;28;20479;-74
2022/06/02 13:59:12;;;;;;;3.40;2.55;;;27.30;76.10;;;;;;5094774;28;20046;-73
2022/06/02 14:01:50;;;;;;;10.52;2.90;;;27.80;73.90;;;;;;5096171;28;20028;-73
2022/06/02 14:04:35;;;;;;;4.22;2.63;;;27.10;75.90;;;;;;5094405;28;20035;-73
2022/06/02 14:07:30;;;;;;;4.75;2.28;;;28.40;75.30;;;;;;5096079;28;20040;-74
2022/06/02 14:10:18;;;;;;;2.03;1.65;;;30.10;71.70;;;;;;5095751;28;20028;-74
2022/06/02 14:13:09;;;;;;;2.45;1.67;;;29.80;72.10;;;;;;5095854;28;20495;-73
2022/06/02 14:15:52;;;;;;;2.90;1.67;;;29.20;70.60;;;;;;5095637;28;20573;-74
2022/06/02 14:18:30;;;;;;;4.53;1.50;;;29.30;70.00;;;;;;5095573;28;20270;-74
2022/06/02 14:21:34;;;;;;;1.10;0.90;;;30.30;69.20;;;;;;5095559;28;20114;-74
2022/06/02 14:24:10;;;;;;;2.28;1.50;;;30.50;69.00;;;;;;5095330;28;20031;-74
2022/06/02 14:26:54;;;;;;;5.60;2.58;;;31.20;67.30;;;;;;5065064;28;20040;-74
2022/06/02 14:29:58;;;;;;;2.45;2.05;;;31.00;68.00;;;;;;5082292;28;20068;-74
2022/06/02 14:32:42;;;;;;;2.47;2.28;;;31.00;67.60;;;;;;5095281;28;20047;-74